Assinippi, Massachusetts
Current Conditions -  °F | °C
As of 6:52 AM on Monday 20 Oct 2014 (Local Time) from KPYM Reporting Station
Clear Clear  
Wind Chill: -1°   Ceiling: Unl
Heat Index:   Visibility: 10mi
Dew Point: -3°   Wind: 5mph
Humidity: 72%   Direction: 260°W
Pressure: 30.05"   Gusts: NA
Location:  42.1315°N, 70.8467°W
Report Text: KPYM 201052Z AUTO 26004KT 10SM CLR 02/M03 A3005 RMK AO2 SLP175 T00171028
Loading
Personal Weather Stations






























Interactive Weather Map
Tropical Storm Tracking
New forecast layout! Learn more

10-Day Weather Forecast

Advertisements
Track Severe Weather on mobile